Share

Mentor, MN

Rural Gentilly (KMNREDLA2) Elev 1014 ft | 47.82 °N, 96.37 °W | Change Station

Current weather conditions updated 2 minutes ago

Clear
Clear
50.4 °F
Feels Like 50.4 °F
N
0.0
Wind Variable Wind from NW
Sunrise 6:26 AM
Sunset 8:21 PM
Moon Waning Gibbous

Today is forecast to be Warmer than yesterday.

Pressure 30.02 in
Visibility 10.0 miles
Clouds Clear
Dew Point 39 °F
Humidity 64%
Rainfall 0.00 in
Snow Depth Not available.
UV 4 out of 16
Pollen 10.70 out of 12
Air Quality Not available.
Flu Activity Sporadic
METAR KFSE 201455Z AUTO 00000KT 10SM CLR 11/01 A3002 RMK AO2

More Conditions Fewer Conditions

Pressure 30.02 in
Visibility 10.0 miles
Clouds Clear
Dew Point 39 °F
Humidity 64%
Rainfall 0.00 in
Snow Depth Not available.
UV 4 out of 16
Pollen 10.70 out of 12
Air Quality Not available.
Flu Activity Sporadic
METAR KFSE 201455Z AUTO 00000KT 10SM CLR 11/01 A3002 RMK AO2

More Conditions Fewer Conditions

10-Day Weather Forecast

Almanac

Astronomy

Apr. 20, 2014 Rise Set
Actual Time 6:26 AM CDT 8:21 PM CDT
Civil Twilight 5:53 AM CDT 8:54 PM CDT
Nautical Twilight 5:13 AM CDT 9:35 PM CDT
Astronomical Twilight 4:28 AM CDT 10:20 PM CDT
Moon 1:11 AM CDT 10:39 AM CDT
Length of Visible Light 15h 01m
Length of Day
13h 55m
Tomorrow will be 3m 14s longer.
Waning Gibbous, 69% of the Moon is Illuminated
Today
Waning Gibbous
Apr 22
Last Quarter
Apr 29
New
May 6
First Quarter
May 14
Full

Today's Extremes

State Highs State Lows

Community

  • Easter Sunrise
    Easter Sunrise
  • Happy Easter
    Happy Easter
  • EARLY FOGGY MORNING
    EARLY FOGGY MORNING
  • Easter Greetings
    Easter Greetings
  • Sunny day at the coast-Cape Arago Lighthouse
    Sunny day at the coast-Cape Arago Lighthouse

WunderPhotos

Upload Photos

1,703,251 photos uploaded!

Nearby

Snow Depth

Station Depth Elevation
No new snow has been reported.

Coastal Water Temperatures

Place Temperature
No Stations Reporting

Earthquake Activity

City Distance Mag. Time & Date
No recent earthquake activity has been reported nearby.
Minimum magnitude displayed is 2.5.

Nearby Weather Stations

Station Location Temp. Dew Point Humidity Wind Precip. Elev Updated Type
Rural Gentilly, Red Lake Falls, MN 50.4 °F 39 °F 64% NW  at  0.0 mph - / hr 1014 ft 10:10 AM CDT Normal

Show More Stations Show Fewer Stations

What do you think?

We're not finished. Please let us know what you like, what you don't like, and what you are still missing.